THY5656 EHRD-LSZH
Flight info
| Callsign | THY5656 |
|---|---|
| Flight time | 1h 0m |
| Altitude | 37000 |
| Route | WOODY N872 NIK M624 DIK N852 SUTAL DCT GTQ DCT POGOL DCT LASAT DCT SHARA DCT TUPOV DCT BLM |
| Aircraft | B738/M-SDE2E3FGHIRWXY/LB1 |
Departure
| Time | 2026-05-01 11:44 |
|---|---|
| Airport | Rotterdam The Hague Airport (EHRD) |
Arrival
| Time | 2026-05-01 12:45 |
|---|---|
| Airport | Zürich Airport (LSZH) |
| Time | Latitude | Longitude | Altitude | Speed | Heading |
|---|---|---|---|---|---|
| 2026-05-01 11:39 | 51.95012 | 4.43509 | -7 ft | 0 kts | 327° |
| 2026-05-01 11:42 | 51.95021 | 4.43499 | -7 ft | 4 kts | 327° |
| 2026-05-01 11:42 | 51.95067 | 4.43452 | -7 ft | 11 kts | 327° |
| 2026-05-01 11:42 | 51.95149 | 4.43367 | -6 ft | 17 kts | 327° |
| 2026-05-01 11:43 | 51.95176 | 4.43252 | -6 ft | 13 kts | 250° |
| 2026-05-01 11:43 | 51.95174 | 4.43111 | -6 ft | 14 kts | 332° |
| 2026-05-01 11:43 | 51.95273 | 4.43122 | -6 ft | 14 kts | 356° |
| 2026-05-01 11:44 | 51.95513 | 4.43587 | -6 ft | 84 kts | 57° |
| 2026-05-01 11:44 | 51.95944 | 4.44664 | -6 ft | 140 kts | 54° |
| 2026-05-01 11:44 | 51.96592 | 4.46184 | 361 ft | 178 kts | 60° |
| 2026-05-01 11:44 | 51.97310 | 4.47979 | 1100 ft | 203 kts | 63° |
| 2026-05-01 11:45 | 51.98058 | 4.49918 | 1833 ft | 203 kts | 65° |
| 2026-05-01 11:45 | 51.98701 | 4.52007 | 2469 ft | 218 kts | 71° |
| 2026-05-01 11:45 | 51.99338 | 4.54366 | 2878 ft | 239 kts | 66° |
| 2026-05-01 11:45 | 52.00068 | 4.56870 | 3306 ft | 253 kts | 78° |
| 2026-05-01 11:46 | 52.00079 | 4.59687 | 3900 ft | 255 kts | 113° |
| 2026-05-01 11:46 | 51.99207 | 4.62130 | 4917 ft | 249 kts | 133° |
| 2026-05-01 11:46 | 51.97865 | 4.63901 | 5857 ft | 248 kts | 154° |
| 2026-05-01 11:46 | 51.96313 | 4.65176 | 6713 ft | 252 kts | 155° |
| 2026-05-01 11:47 | 51.94709 | 4.66271 | 7489 ft | 257 kts | 169° |
| 2026-05-01 11:47 | 51.92929 | 4.66149 | 8321 ft | 261 kts | 195° |
| 2026-05-01 11:47 | 51.91280 | 4.64846 | 9130 ft | 270 kts | 214° |
| 2026-05-01 11:47 | 51.89973 | 4.62613 | 9957 ft | 278 kts | 231° |
| 2026-05-01 11:48 | 51.88864 | 4.60002 | 10667 ft | 288 kts | 232° |
| 2026-05-01 11:48 | 51.87661 | 4.57239 | 10870 ft | 312 kts | 225° |
| 2026-05-01 11:48 | 51.85862 | 4.55172 | 11056 ft | 328 kts | 199° |
| 2026-05-01 11:48 | 51.83632 | 4.54108 | 11531 ft | 339 kts | 193° |
| 2026-05-01 11:49 | 51.81318 | 4.53170 | 12228 ft | 344 kts | 192° |
| 2026-05-01 11:49 | 51.78984 | 4.52249 | 12995 ft | 347 kts | 192° |
| 2026-05-01 11:49 | 51.76625 | 4.51312 | 13747 ft | 351 kts | 192° |
| 2026-05-01 11:49 | 51.74241 | 4.50356 | 14420 ft | 356 kts | 192° |
| 2026-05-01 11:50 | 51.71827 | 4.49376 | 15093 ft | 359 kts | 192° |
| 2026-05-01 11:50 | 51.69393 | 4.48383 | 15745 ft | 362 kts | 192° |
| 2026-05-01 11:50 | 51.66944 | 4.47379 | 16413 ft | 366 kts | 192° |
| 2026-05-01 11:50 | 51.64461 | 4.46359 | 17080 ft | 369 kts | 192° |
| 2026-05-01 11:51 | 51.61960 | 4.45332 | 17713 ft | 373 kts | 192° |
| 2026-05-01 11:51 | 51.59436 | 4.44296 | 18352 ft | 377 kts | 192° |
| 2026-05-01 11:51 | 51.56881 | 4.43248 | 18924 ft | 380 kts | 192° |
| 2026-05-01 11:51 | 51.54307 | 4.42194 | 19463 ft | 384 kts | 193° |
| 2026-05-01 11:52 | 51.51709 | 4.41131 | 19996 ft | 387 kts | 193° |
| 2026-05-01 11:52 | 51.49084 | 4.40059 | 20526 ft | 391 kts | 193° |
| 2026-05-01 11:52 | 51.46435 | 4.38978 | 21039 ft | 395 kts | 193° |
| 2026-05-01 11:52 | 51.43762 | 4.37888 | 21550 ft | 398 kts | 193° |
| 2026-05-01 11:53 | 51.41061 | 4.36785 | 22055 ft | 402 kts | 193° |
| 2026-05-01 11:53 | 51.38409 | 4.35259 | 22541 ft | 407 kts | 203° |
| 2026-05-01 11:53 | 51.35855 | 4.33248 | 23042 ft | 411 kts | 205° |
| 2026-05-01 11:53 | 51.33287 | 4.31196 | 23525 ft | 414 kts | 204° |
| 2026-05-01 11:54 | 51.30683 | 4.29182 | 23982 ft | 418 kts | 204° |
| 2026-05-01 11:54 | 51.28048 | 4.27169 | 24387 ft | 420 kts | 204° |
| 2026-05-01 11:54 | 51.25405 | 4.25158 | 24810 ft | 422 kts | 204° |
| 2026-05-01 11:54 | 51.22740 | 4.23134 | 25221 ft | 425 kts | 204° |
| 2026-05-01 11:55 | 51.19978 | 4.21474 | 25568 ft | 425 kts | 189° |
| 2026-05-01 11:55 | 51.17040 | 4.21314 | 25938 ft | 425 kts | 171° |
| 2026-05-01 11:55 | 51.14180 | 4.22486 | 26347 ft | 426 kts | 158° |
| 2026-05-01 11:55 | 51.11608 | 4.24804 | 26684 ft | 429 kts | 142° |
| 2026-05-01 11:56 | 51.09312 | 4.27853 | 27050 ft | 431 kts | 140° |
| 2026-05-01 11:56 | 51.07042 | 4.31001 | 27371 ft | 434 kts | 139° |
| 2026-05-01 11:56 | 51.04761 | 4.34171 | 27697 ft | 437 kts | 139° |
| 2026-05-01 11:56 | 51.02457 | 4.37337 | 28036 ft | 439 kts | 140° |
| 2026-05-01 11:57 | 51.00127 | 4.40499 | 28369 ft | 441 kts | 140° |
| 2026-05-01 11:57 | 50.97776 | 4.43663 | 28692 ft | 444 kts | 140° |
| 2026-05-01 11:57 | 50.95438 | 4.46795 | 28995 ft | 446 kts | 140° |
| 2026-05-01 11:57 | 50.93061 | 4.49975 | 29289 ft | 448 kts | 140° |
| 2026-05-01 11:58 | 50.90674 | 4.53165 | 29586 ft | 450 kts | 140° |
| 2026-05-01 11:58 | 50.88358 | 4.56527 | 29887 ft | 452 kts | 136° |
| 2026-05-01 11:58 | 50.83933 | 4.63578 | 30702 ft | 450 kts | 135° |
| 2026-05-01 11:59 | 50.81742 | 4.67096 | 31075 ft | 448 kts | 135° |
| 2026-05-01 11:59 | 50.79541 | 4.70592 | 31368 ft | 449 kts | 136° |
| 2026-05-01 11:59 | 50.77331 | 4.74066 | 31855 ft | 444 kts | 136° |
| 2026-05-01 12:00 | 50.72931 | 4.80939 | 32423 ft | 446 kts | 136° |
| 2026-05-01 12:00 | 50.70721 | 4.84375 | 32794 ft | 444 kts | 136° |
| 2026-05-01 12:00 | 50.66333 | 4.91191 | 33395 ft | 444 kts | 136° |
| 2026-05-01 12:01 | 50.64133 | 4.94604 | 33711 ft | 444 kts | 136° |
| 2026-05-01 12:01 | 50.61937 | 4.98013 | 34039 ft | 443 kts | 136° |
| 2026-05-01 12:01 | 50.59741 | 5.01420 | 34266 ft | 444 kts | 136° |
| 2026-05-01 12:01 | 50.57539 | 5.04833 | 34514 ft | 444 kts | 136° |
| 2026-05-01 12:02 | 50.55346 | 5.08228 | 34895 ft | 440 kts | 136° |
| 2026-05-01 12:02 | 50.53165 | 5.11600 | 35168 ft | 439 kts | 137° |
| 2026-05-01 12:02 | 50.50981 | 5.14971 | 35316 ft | 441 kts | 137° |
| 2026-05-01 12:02 | 50.48795 | 5.18341 | 35634 ft | 439 kts | 137° |
| 2026-05-01 12:03 | 50.46611 | 5.21702 | 35837 ft | 440 kts | 137° |
| 2026-05-01 12:03 | 50.44451 | 5.25022 | 36046 ft | 441 kts | 137° |
| 2026-05-01 12:03 | 50.42250 | 5.28402 | 36224 ft | 441 kts | 136° |
| 2026-05-01 12:03 | 50.40065 | 5.31752 | 36637 ft | 437 kts | 136° |
| 2026-05-01 12:04 | 50.37889 | 5.35084 | 36754 ft | 439 kts | 136° |
| 2026-05-01 12:04 | 50.33481 | 5.41816 | 37085 ft | 441 kts | 136° |
| 2026-05-01 12:04 | 50.31301 | 5.45141 | 37251 ft | 439 kts | 137° |
| 2026-05-01 12:05 | 50.29112 | 5.48473 | 37274 ft | 438 kts | 136° |
| 2026-05-01 12:05 | 50.22575 | 5.58401 | 37273 ft | 438 kts | 137° |
| 2026-05-01 12:06 | 50.18189 | 5.65037 | 37290 ft | 439 kts | 137° |
| 2026-05-01 12:06 | 50.13791 | 5.71680 | 37280 ft | 441 kts | 137° |
| 2026-05-01 12:07 | 50.09369 | 5.78340 | 37288 ft | 442 kts | 137° |
| 2026-05-01 12:07 | 50.04940 | 5.84984 | 37289 ft | 443 kts | 137° |
| 2026-05-01 12:08 | 50.00503 | 5.91623 | 37282 ft | 443 kts | 137° |
| 2026-05-01 12:08 | 49.96060 | 5.98255 | 37291 ft | 443 kts | 137° |
| 2026-05-01 12:09 | 49.91598 | 6.04871 | 37288 ft | 443 kts | 137° |
| 2026-05-01 12:09 | 49.87084 | 6.11407 | 37286 ft | 443 kts | 142° |
| 2026-05-01 12:10 | 49.78977 | 6.17979 | 37296 ft | 442 kts | 158° |
| 2026-05-01 12:11 | 49.70483 | 6.23603 | 37303 ft | 443 kts | 157° |
| 2026-05-01 12:11 | 49.64843 | 6.27423 | 37291 ft | 443 kts | 157° |
| 2026-05-01 12:12 | 49.59183 | 6.31162 | 37283 ft | 443 kts | 158° |
| 2026-05-01 12:12 | 49.53490 | 6.34819 | 37290 ft | 443 kts | 158° |
| 2026-05-01 12:13 | 49.47843 | 6.38459 | 37285 ft | 443 kts | 158° |
| 2026-05-01 12:13 | 49.42189 | 6.42204 | 37288 ft | 442 kts | 156° |
| 2026-05-01 12:14 | 49.36569 | 6.46048 | 37291 ft | 442 kts | 156° |
| 2026-05-01 12:14 | 49.30948 | 6.49876 | 37283 ft | 442 kts | 156° |
| 2026-05-01 12:15 | 49.26266 | 6.53044 | 37296 ft | 442 kts | 157° |
| 2026-05-01 12:15 | 49.20646 | 6.56831 | 37279 ft | 442 kts | 156° |
| 2026-05-01 12:16 | 49.15022 | 6.60611 | 37302 ft | 441 kts | 157° |
| 2026-05-01 12:16 | 49.09397 | 6.64384 | 37287 ft | 441 kts | 157° |
| 2026-05-01 12:17 | 49.03782 | 6.68141 | 37294 ft | 441 kts | 156° |
| 2026-05-01 12:17 | 48.97979 | 6.71135 | 37294 ft | 440 kts | 171° |
| 2026-05-01 12:18 | 48.91878 | 6.71510 | 37304 ft | 440 kts | 182° |
| 2026-05-01 12:18 | 48.85748 | 6.71165 | 37271 ft | 440 kts | 182° |
| 2026-05-01 12:19 | 48.82711 | 6.71004 | 37044 ft | 433 kts | 182° |
| 2026-05-01 12:19 | 48.79718 | 6.70862 | 36554 ft | 428 kts | 181° |
| 2026-05-01 12:19 | 48.76757 | 6.70735 | 36169 ft | 425 kts | 181° |
| 2026-05-01 12:19 | 48.73782 | 6.70615 | 35784 ft | 432 kts | 181° |
| 2026-05-01 12:20 | 48.70753 | 6.70497 | 35394 ft | 439 kts | 181° |
| 2026-05-01 12:20 | 48.67683 | 6.70378 | 35007 ft | 442 kts | 181° |
| 2026-05-01 12:20 | 48.64604 | 6.70259 | 34593 ft | 443 kts | 181° |
| 2026-05-01 12:20 | 48.61516 | 6.70139 | 34181 ft | 444 kts | 181° |
| 2026-05-01 12:21 | 48.58426 | 6.70019 | 33707 ft | 445 kts | 181° |
| 2026-05-01 12:21 | 48.55335 | 6.69899 | 33256 ft | 445 kts | 181° |
| 2026-05-01 12:21 | 48.52237 | 6.69778 | 32809 ft | 445 kts | 181° |
| 2026-05-01 12:21 | 48.49141 | 6.69658 | 32366 ft | 446 kts | 181° |
| 2026-05-01 12:22 | 48.46036 | 6.69538 | 31933 ft | 446 kts | 181° |
| 2026-05-01 12:22 | 48.42932 | 6.69418 | 31506 ft | 447 kts | 181° |
| 2026-05-01 12:22 | 48.39811 | 6.69297 | 31086 ft | 449 kts | 181° |
| 2026-05-01 12:22 | 48.36682 | 6.69178 | 30676 ft | 451 kts | 180° |
| 2026-05-01 12:23 | 48.33535 | 6.69060 | 30257 ft | 453 kts | 180° |
| 2026-05-01 12:23 | 48.30379 | 6.68942 | 29781 ft | 455 kts | 180° |
| 2026-05-01 12:23 | 48.27201 | 6.68823 | 29309 ft | 457 kts | 180° |
| 2026-05-01 12:23 | 48.24057 | 6.68705 | 28851 ft | 459 kts | 180° |
| 2026-05-01 12:24 | 48.20823 | 6.68584 | 28389 ft | 460 kts | 180° |
| 2026-05-01 12:24 | 48.17628 | 6.68465 | 27952 ft | 460 kts | 180° |
| 2026-05-01 12:24 | 48.14417 | 6.68344 | 27497 ft | 461 kts | 180° |
| 2026-05-01 12:24 | 48.11211 | 6.68220 | 27059 ft | 461 kts | 180° |
| 2026-05-01 12:25 | 48.08004 | 6.68095 | 26627 ft | 462 kts | 180° |
| 2026-05-01 12:25 | 48.01585 | 6.68263 | 25763 ft | 462 kts | 166° |
| 2026-05-01 12:25 | 47.98628 | 6.70039 | 25360 ft | 459 kts | 148° |
| 2026-05-01 12:26 | 47.96126 | 6.72870 | 24979 ft | 457 kts | 135° |
| 2026-05-01 12:26 | 47.92594 | 6.80621 | 24192 ft | 445 kts | 118° |
| 2026-05-01 12:26 | 47.91079 | 6.84634 | 23844 ft | 443 kts | 118° |
| 2026-05-01 12:27 | 47.89590 | 6.88576 | 23437 ft | 441 kts | 119° |
| 2026-05-01 12:27 | 47.86648 | 6.96210 | 22590 ft | 406 kts | 120° |
| 2026-05-01 12:28 | 47.83914 | 7.03173 | 21784 ft | 374 kts | 120° |
| 2026-05-01 12:28 | 47.82624 | 7.06446 | 21383 ft | 361 kts | 120° |
| 2026-05-01 12:28 | 47.80160 | 7.12687 | 20623 ft | 340 kts | 120° |
| 2026-05-01 12:29 | 47.78981 | 7.15670 | 20264 ft | 331 kts | 120° |
| 2026-05-01 12:29 | 47.77821 | 7.18598 | 19879 ft | 326 kts | 121° |
| 2026-05-01 12:29 | 47.75537 | 7.24308 | 19165 ft | 319 kts | 123° |
| 2026-05-01 12:30 | 47.72979 | 7.29768 | 18466 ft | 323 kts | 126° |
| 2026-05-01 12:30 | 47.71690 | 7.32436 | 18069 ft | 321 kts | 126° |
| 2026-05-01 12:30 | 47.70397 | 7.35123 | 17666 ft | 318 kts | 126° |
| 2026-05-01 12:31 | 47.69120 | 7.37788 | 17276 ft | 316 kts | 126° |
| 2026-05-01 12:31 | 47.67857 | 7.40438 | 16893 ft | 314 kts | 126° |
| 2026-05-01 12:31 | 47.66600 | 7.43077 | 16514 ft | 312 kts | 126° |
| 2026-05-01 12:31 | 47.65351 | 7.45696 | 16131 ft | 311 kts | 126° |
| 2026-05-01 12:32 | 47.64092 | 7.48334 | 15807 ft | 315 kts | 126° |
| 2026-05-01 12:32 | 47.62203 | 7.54178 | 15143 ft | 315 kts | 109° |
| 2026-05-01 12:32 | 47.61525 | 7.57263 | 14810 ft | 314 kts | 109° |
| 2026-05-01 12:33 | 47.60844 | 7.60324 | 14483 ft | 312 kts | 109° |
| 2026-05-01 12:33 | 47.60154 | 7.63350 | 14168 ft | 309 kts | 109° |
| 2026-05-01 12:33 | 47.59454 | 7.66356 | 13812 ft | 307 kts | 110° |
| 2026-05-01 12:33 | 47.58760 | 7.69305 | 13431 ft | 300 kts | 110° |
| 2026-05-01 12:34 | 47.58077 | 7.72193 | 13062 ft | 293 kts | 110° |
| 2026-05-01 12:34 | 47.57409 | 7.75018 | 12698 ft | 287 kts | 110° |
| 2026-05-01 12:34 | 47.56756 | 7.77787 | 12336 ft | 283 kts | 110° |
| 2026-05-01 12:34 | 47.56111 | 7.80523 | 11986 ft | 281 kts | 110° |
| 2026-05-01 12:35 | 47.55468 | 7.83249 | 11637 ft | 280 kts | 110° |
| 2026-05-01 12:35 | 47.54836 | 7.85923 | 11304 ft | 278 kts | 110° |
| 2026-05-01 12:35 | 47.54198 | 7.88621 | 10959 ft | 277 kts | 110° |
| 2026-05-01 12:35 | 47.53562 | 7.91308 | 10632 ft | 276 kts | 110° |
| 2026-05-01 12:36 | 47.52929 | 7.93981 | 10294 ft | 274 kts | 110° |
| 2026-05-01 12:36 | 47.52298 | 7.96643 | 9941 ft | 274 kts | 110° |
| 2026-05-01 12:36 | 47.51665 | 7.99304 | 9579 ft | 274 kts | 110° |
| 2026-05-01 12:36 | 47.51029 | 8.01976 | 9224 ft | 274 kts | 109° |
| 2026-05-01 12:37 | 47.50745 | 8.04723 | 8863 ft | 272 kts | 85° |
| 2026-05-01 12:37 | 47.51152 | 8.07425 | 8548 ft | 267 kts | 74° |
| 2026-05-01 12:37 | 47.51700 | 8.10030 | 8204 ft | 263 kts | 73° |
| 2026-05-01 12:37 | 47.52246 | 8.12588 | 7882 ft | 258 kts | 73° |
| 2026-05-01 12:38 | 47.52773 | 8.15062 | 7560 ft | 253 kts | 73° |
| 2026-05-01 12:38 | 47.53293 | 8.17526 | 7323 ft | 250 kts | 73° |
| 2026-05-01 12:38 | 47.53803 | 8.19962 | 7118 ft | 245 kts | 73° |
| 2026-05-01 12:38 | 47.54294 | 8.22329 | 6887 ft | 237 kts | 73° |
| 2026-05-01 12:39 | 47.54768 | 8.24620 | 6499 ft | 229 kts | 73° |
| 2026-05-01 12:39 | 47.55225 | 8.26834 | 6170 ft | 222 kts | 73° |
| 2026-05-01 12:39 | 47.55669 | 8.28990 | 5853 ft | 215 kts | 73° |
| 2026-05-01 12:39 | 47.56095 | 8.31069 | 5514 ft | 208 kts | 72° |
| 2026-05-01 12:40 | 47.56514 | 8.33103 | 5096 ft | 209 kts | 72° |
| 2026-05-01 12:40 | 47.56947 | 8.35224 | 4376 ft | 219 kts | 73° |
| 2026-05-01 12:40 | 47.57376 | 8.37321 | 4123 ft | 204 kts | 73° |
| 2026-05-01 12:40 | 47.57703 | 8.39254 | 3971 ft | 185 kts | 87° |
| 2026-05-01 12:41 | 47.57310 | 8.40881 | 3832 ft | 163 kts | 133° |
| 2026-05-01 12:41 | 47.56571 | 8.42089 | 3656 ft | 161 kts | 127° |
| 2026-05-01 12:41 | 47.55799 | 8.43288 | 3436 ft | 161 kts | 137° |
| 2026-05-01 12:41 | 47.54992 | 8.44373 | 3216 ft | 154 kts | 135° |
| 2026-05-01 12:42 | 47.54241 | 8.45428 | 3055 ft | 146 kts | 136° |
| 2026-05-01 12:42 | 47.53463 | 8.46454 | 2846 ft | 152 kts | 136° |
| 2026-05-01 12:42 | 47.52674 | 8.47514 | 2672 ft | 153 kts | 135° |
| 2026-05-01 12:42 | 47.51892 | 8.48578 | 2447 ft | 148 kts | 135° |
| 2026-05-01 12:43 | 47.51145 | 8.49597 | 2236 ft | 145 kts | 135° |
| 2026-05-01 12:43 | 47.50398 | 8.50616 | 2053 ft | 150 kts | 134° |
| 2026-05-01 12:43 | 47.49628 | 8.51679 | 1842 ft | 153 kts | 136° |
| 2026-05-01 12:43 | 47.48845 | 8.52745 | 1623 ft | 152 kts | 134° |
| 2026-05-01 12:44 | 47.48064 | 8.53806 | 1451 ft | 152 kts | 134° |
| 2026-05-01 12:44 | 47.47315 | 8.54832 | 1385 ft | 133 kts | 138° |
| 2026-05-01 12:44 | 47.46359 | 8.56144 | 1401 ft | 70 kts | 137° |
| 2026-05-01 12:45 | 47.45940 | 8.56311 | 1412 ft | 28 kts | 186° |
| 2026-05-01 12:45 | 47.45758 | 8.56285 | 1414 ft | 24 kts | 186° |
| 2026-05-01 12:45 | 47.45619 | 8.56221 | 1413 ft | 19 kts | 246° |
| 2026-05-01 12:46 | 47.45627 | 8.56028 | 1409 ft | 19 kts | 277° |
| 2026-05-01 12:46 | 47.45616 | 8.55856 | 1410 ft | 16 kts | 213° |
| 2026-05-01 12:46 | 47.45511 | 8.55818 | 1409 ft | 15 kts | 189° |
| 2026-05-01 12:46 | 47.45436 | 8.55805 | 1409 ft | 2 kts | 186° |
| 2026-05-01 12:47 | 47.45432 | 8.55804 | 1410 ft | 0 kts | 186° |
| 2026-05-01 12:48 | 47.45431 | 8.55804 | 1406 ft | 1 kts | 186° |
| 2026-05-01 12:48 | 47.45427 | 8.55803 | 1406 ft | 0 kts | 185° |